ADDS METAR Data INFO
IDs: Format: Raw Decoded Include TAF

Data at: 0308 UTC 17 Jan 2018

K1A5 170255Z AUTO 30004KT 10SM BKN023 BKN033 OVC055 00/M02 A3028 RMK AO2 T10011023
K1A5 170235Z AUTO 00000KT 3SM -SN OVC021 00/M01 A3027 RMK AO2 T00001014
K1A5 170215Z AUTO 32004KT 10SM BKN015 OVC021 00/M01 A3027 RMK AO2 T00031015
K1A5 170155Z AUTO 31006KT 7SM UP OVC015 01/M01 A3027 RMK AO2 T00061008
K1A5 170135Z AUTO 30003KT 7SM UP SCT009 OVC015 01/00 A3028 RMK AO2 T00120000
K1A5 170115Z AUTO 26003KT 7SM UP OVC013 02/00 A3027 RMK AO2 T00150001
K1A5 170055Z AUTO 24003KT 7SM UP OVC011 02/00 A3027 RMK AO2 T00170001
K1A5 170035Z AUTO 00000KT 7SM UP BKN011 BKN029 OVC041 02/01 A3027 RMK AO2 T00200009
K1A5 170015Z AUTO 29003KT 7SM UP SCT013 BKN032 OVC041 02/01 A3027 RMK AO2 T00200012
K1A5 162355Z AUTO 00000KT 5SM UP SCT027 OVC032 02/01 A3027 RMK AO2 T00180011 10094 20017
K1A5 162335Z AUTO 00000KT 7SM UP OVC034 02/01 A3026 RMK AO2 T00200011
K1A5 162315Z AUTO 00000KT 7SM UP OVC036 02/01 A3026 RMK AO2 T00220011
K1A5 162255Z AUTO 00000KT 10SM UP OVC040 03/01 A3027 RMK AO2 T00250010
K1A5 162235Z AUTO 26003KT 7SM UP OVC040 03/01 A3027 RMK AO2 T00310010
K1A5 162215Z AUTO 26003KT 10SM UP OVC042 04/01 A3027 RMK AO2 T00380006
K1A5 162155Z AUTO 28006KT 10SM -DZ SCT034 OVC044 04/00 A3026 RMK AO2 T00420002
K1A5 162135Z AUTO 28007KT 7SM RA SCT034 OVC044 05/00 A3026 RMK AO2 T00501001
K1A5 162115Z AUTO 22005KT 10SM OVC042 06/M01 A3026 RMK AO2 T00601014
K1A5 162055Z AUTO 21004KT 10SM OVC044 06/M03 A3026 RMK AO2 T00641026
K1A5 162035Z AUTO 19005KT 10SM OVC046 07/M03 A3025 RMK AO2 T00671031
K1A5 162015Z AUTO 19004KT 10SM OVC048 07/M04 A3025 RMK AO2 T00681037
K1A5 161955Z AUTO 26004KT 10SM OVC050 07/M04 A3026 RMK AO2 T00711038
K1A5 161935Z AUTO 27008KT 10SM OVC050 08/M04 A3026 RMK AO2 T00751039
K1A5 161915Z AUTO 24007G14KT 10SM BKN060 OVC100 08/M04 A3026 RMK AO2 T00791042
K1A5 161855Z AUTO 27014G20KT 10SM BKN060 BKN100 08/M04 A3027 RMK AO2 T00811043
K1A5 161815Z AUTO 26014G19KT 10SM CLR 09/M04 A3028 RMK AO2 T00891043
K1A5 161755Z AUTO 25005KT 10SM SCT055 07/M04 A3029 RMK AO2 T00691040 10072 21083
K1A5 161735Z AUTO 04003KT 10SM CLR 07/M04 A3030 RMK AO2 T00701037
K1A5 161715Z AUTO 07003KT 10SM CLR 06/M04 A3031 RMK AO2 T00631039
K1A5 161655Z AUTO 00000KT 10SM CLR 05/M03 A3033 RMK AO2 T00491034
K1A5 161635Z AUTO 00000KT 10SM CLR 03/M04 A3034 RMK AO2 T00311038
K1A5 161615Z AUTO 00000KT 10SM CLR 02/M04 A3035 RMK AO2 T00231041
K1A5 161555Z AUTO 00000KT 10SM CLR 01/M04 A3037 RMK AO2 T00121044
K1A5 161535Z AUTO 00000KT 10SM CLR 00/M05 A3038 RMK AO2 T00041047
K1A5 161515Z AUTO 00000KT 10SM CLR M01/M04 A3038 RMK AO2 T10061039
K1A5 161455Z AUTO 00000KT 10SM CLR M02/M05 A3039 RMK AO2 T10191046
K1A5 161435Z AUTO 00000KT 10SM CLR M03/M05 A3039 RMK AO2 T10311052
K1A5 161415Z AUTO 00000KT 10SM CLR M05/M06 A3039 RMK AO2 T10471063
K1A5 161355Z AUTO 00000KT 10SM CLR M06/M07 A3039 RMK AO2 T10571071
K1A5 161335Z AUTO 00000KT 10SM CLR M07/M09 A3039 RMK AO2 T10721086
K1A5 161315Z AUTO 00000KT 10SM CLR M08/M10 A3038 RMK AO2 T10801096
K1A5 161255Z AUTO 00000KT 10SM CLR M08/M10 A3038 RMK AO2 T10821099
K1A5 161235Z AUTO 00000KT 10SM CLR M08/M10 A3037 RMK AO2 T10821096
K1A5 161215Z AUTO 00000KT 10SM CLR M08/M10 A3036 RMK AO2 T10801096
K1A5 161155Z AUTO 00000KT 10SM CLR M08/M09 A3036 RMK AO2 T10791095 11062 21081
K1A5 161135Z AUTO 00000KT 10SM CLR M08/M09 A3036 RMK AO2 T10791095
K1A5 161115Z AUTO 00000KT 10SM CLR M08/M10 A3036 RMK AO2 T10811097
K1A5 161055Z AUTO 00000KT 10SM CLR M08/M09 A3036 RMK AO2 T10761090
K1A5 161035Z AUTO 00000KT 10SM CLR M08/M09 A3036 RMK AO2 T10771092
K1A5 161015Z AUTO 00000KT 10SM CLR M08/M09 A3036 RMK AO2 T10761089
K1A5 160955Z AUTO 00000KT 10SM CLR M08/M09 A3035 RMK AO2 T10791094
K1A5 160935Z AUTO 00000KT 10SM CLR M07/M09 A3035 RMK AO2 T10751089
K1A5 160915Z AUTO 00000KT 10SM CLR M08/M09 A3035 RMK AO2 T10761090
K1A5 160855Z AUTO 00000KT 10SM CLR M07/M09 A3036 RMK AO2 T10721086
K1A5 160835Z AUTO 00000KT 10SM CLR M07/M09 A3037 RMK AO2 T10741087
K1A5 160815Z AUTO 00000KT 10SM CLR M07/M08 A3037 RMK AO2 T10681080
K1A5 160755Z AUTO 00000KT 7SM CLR M07/M08 A3037 RMK AO2 T10711085
K1A5 160735Z AUTO 00000KT 10SM CLR M07/M08 A3037 RMK AO2 T10711084
K1A5 160715Z AUTO 00000KT 10SM CLR M07/M08 A3037 RMK AO2 T10701082
K1A5 160655Z AUTO 00000KT 10SM CLR M07/M08 A3037 RMK AO2 T10661081
K1A5 160635Z AUTO 00000KT 10SM CLR M07/M08 A3037 RMK AO2 T10681079
K1A5 160615Z AUTO 00000KT 10SM CLR M06/M08 A3037 RMK AO2 T10641078
K1A5 160555Z AUTO 00000KT 10SM CLR M06/M08 A3037 RMK AO2 T10651077 11013 21067 400691093
K1A5 160535Z AUTO 00000KT 10SM CLR M06/M07 A3037 RMK AO2 T10611073
K1A5 160515Z AUTO 00000KT 10SM CLR M06/M08 A3038 RMK AO2 T10621076
K1A5 160455Z AUTO 00000KT 10SM CLR M06/M07 A3038 RMK AO2 T10601073
K1A5 160435Z AUTO 00000KT 10SM CLR M06/M07 A3038 RMK AO2 T10571070
K1A5 160415Z AUTO 00000KT 10SM CLR M06/M07 A3038 RMK AO2 T10571070
K1A5 160355Z AUTO 00000KT 10SM CLR M05/M07 A3037 RMK AO2 T10551068
K1A5 160335Z AUTO 00000KT 10SM CLR M05/M06 A3037 RMK AO2 T10491063
K1A5 160315Z AUTO 00000KT 10SM CLR M05/M06 A3037 RMK AO2 T10491064
K1A5 160255Z AUTO 00000KT 10SM CLR M05/M06 A3037 RMK AO2 T10491061
K1A5 160235Z AUTO 00000KT 10SM CLR M04/M06 A3037 RMK AO2 T10441060
K1A5 160215Z AUTO 00000KT 10SM CLR M04/M05 A3037 RMK AO2 T10411055
K1A5 160155Z AUTO 00000KT 10SM CLR M04/M06 A3036 RMK AO2 T10391056
K1A5 160135Z AUTO 00000KT 10SM CLR M04/M05 A3035 RMK AO2 T10361055
K1A5 160115Z AUTO 00000KT 10SM CLR M03/M05 A3035 RMK AO2 T10351052
K1A5 160055Z AUTO 00000KT 10SM CLR M03/M05 A3034 RMK AO2 T10271051
K1A5 160035Z AUTO 00000KT 10SM CLR M02/M05 A3034 RMK AO2 T10211049
K1A5 160015Z AUTO 00000KT 10SM CLR M02/M05 A3034 RMK AO2 T10181049
K1A5 152355Z AUTO 00000KT 10SM CLR M02/M05 A3034 RMK AO2 T10171050 10069 21017
K1A5 152335Z AUTO 00000KT 10SM CLR M01/M05 A3034 RMK AO2 T10101046
K1A5 152315Z AUTO 23003KT 10SM CLR M01/M04 A3034 RMK AO2 T10071045
K1A5 152255Z AUTO 00000KT 10SM CLR 01/M04 A3033 RMK AO2 T00131045
K1A5 152235Z AUTO 24004KT 10SM CLR 03/M05 A3032 RMK AO2 T00281046
K1A5 152215Z AUTO 00000KT 10SM CLR 05/M05 A3031 RMK AO2 T00461050
K1A5 152155Z AUTO 00000KT 10SM CLR 06/M06 A3031 RMK AO2 T00611058
K1A5 152135Z AUTO 08003KT 10SM CLR 07/M07 A3031 RMK AO2 T00661068
K1A5 152115Z AUTO 09003KT 10SM CLR 07/M07 A3031 RMK AO2 T00661068
K1A5 152055Z AUTO 11003KT 10SM CLR 07/M06 A3030 RMK AO2 T00681064
K1A5 152035Z AUTO 00000KT 10SM CLR 06/M07 A3031 RMK AO2 T00621069
K1A5 152015Z AUTO 22004KT 10SM CLR 06/M07 A3031 RMK AO2 T00631069
K1A5 151955Z AUTO 00000KT 10SM CLR 06/M07 A3032 RMK AO2 T00561071
K1A5 151935Z AUTO 09003KT 10SM CLR 06/M07 A3031 RMK AO2 T00571071
K1A5 151915Z AUTO 00000KT 10SM CLR 05/M07 A3031 RMK AO2 T00491074
K1A5 151855Z AUTO 13003KT 10SM CLR 05/M07 A3032 RMK AO2 T00511073
K1A5 151835Z AUTO 10003KT 10SM CLR 05/M08 A3034 RMK AO2 T00471077
K1A5 151815Z AUTO 00000KT 10SM CLR 04/M08 A3035 RMK AO2 T00361083
K1A5 151755Z AUTO 00000KT 10SM CLR 04/M08 A3036 RMK AO2 T00351084 10035 21080
K1A5 151735Z AUTO 00000KT 10SM CLR 03/M08 A3036 RMK AO2 T00271085
K1A5 151715Z AUTO 00000KT 10SM CLR 02/M09 A3038 RMK AO2 T00191090
K1A5 151655Z AUTO 00000KT 10SM CLR 01/M09 A3039 RMK AO2 T00121089
K1A5 151635Z AUTO 07004KT 10SM CLR 01/M09 A3040 RMK AO2 T00071090
K1A5 151615Z AUTO 09003KT 10SM CLR 01/M09 A3042 RMK AO2 T00051090
K1A5 151555Z AUTO 08003KT 10SM SCT002 SCT042 00/M09 A3042 RMK AO2 T10031091
K1A5 151535Z AUTO 10003KT 10SM SCT046 00/M09 A3043 RMK AO2 T10051089
K1A5 151515Z AUTO 00000KT 10SM SCT048 M01/M08 A3044 RMK AO2 T10111077